createdAt,value
2023-01-26T00:02:26.969Z,7.90
2023-01-26T00:04:54.824Z,8.55
2023-01-26T00:07:22.673Z,8.32
2023-01-26T00:09:50.721Z,9.27
2023-01-26T00:12:19.905Z,7.78
2023-01-26T00:14:53.418Z,8.27
2023-01-26T00:17:27.816Z,9.52
2023-01-26T00:19:58.450Z,9.18
2023-01-26T00:22:28.230Z,7.60
2023-01-26T00:24:56.161Z,7.55
2023-01-26T00:27:26.157Z,9.02
2023-01-26T00:29:54.475Z,7.95
2023-01-26T00:32:22.670Z,8.75
2023-01-26T00:34:50.692Z,7.15
2023-01-26T00:37:19.143Z,7.13
2023-01-26T00:39:47.067Z,8.15
2023-01-26T00:42:15.852Z,7.80
2023-01-26T00:44:45.762Z,6.25
2023-01-26T00:47:15.701Z,5.88
2023-01-26T00:49:43.867Z,4.95
2023-01-26T00:52:12.468Z,5.25
2023-01-26T00:54:40.844Z,5.53
2023-01-26T00:57:08.782Z,5.20
2023-01-26T00:59:36.965Z,5.55
2023-01-26T01:02:06.558Z,5.07
2023-01-26T01:04:34.487Z,5.60
2023-01-26T01:07:02.504Z,4.88
2023-01-26T01:09:30.440Z,6.18
2023-01-26T01:11:58.385Z,6.78
2023-01-26T01:14:26.377Z,8.32
2023-01-26T01:16:54.269Z,6.10
2023-01-26T01:19:23.743Z,6.00
2023-01-26T01:21:54.599Z,5.13
2023-01-26T01:24:22.884Z,4.93
2023-01-26T01:26:50.920Z,5.25
2023-01-26T01:29:18.832Z,4.30
2023-01-26T01:31:46.747Z,5.10
2023-01-26T01:34:14.626Z,5.30
2023-01-26T01:36:44.082Z,4.97
2023-01-26T01:39:11.980Z,4.57
2023-01-26T01:41:39.917Z,5.03
2023-01-26T01:44:17.570Z,4.07
2023-01-26T01:46:53.295Z,4.38
2023-01-26T01:49:27.393Z,4.28
2023-01-26T01:52:03.515Z,4.53
2023-01-26T01:54:38.201Z,4.45
2023-01-26T01:57:19.000Z,4.55
2023-01-26T01:59:55.286Z,4.95
2023-01-26T02:02:23.656Z,4.93
2023-01-26T02:04:52.383Z,4.90
2023-01-26T02:07:22.406Z,5.43
2023-01-26T02:10:09.302Z,4.70
2023-01-26T02:12:37.764Z,4.93
2023-01-26T02:15:06.863Z,4.93
2023-01-26T02:17:34.827Z,5.15
2023-01-26T02:20:12.545Z,5.90
2023-01-26T02:22:54.363Z,5.55
2023-01-26T02:25:37.953Z,5.03
2023-01-26T02:28:07.669Z,5.35
2023-01-26T02:30:35.952Z,5.40
2023-01-26T02:33:04.072Z,5.80
2023-01-26T02:35:32.249Z,5.32
2023-01-26T02:38:01.863Z,4.85
2023-01-26T02:40:41.837Z,4.57
2023-01-26T02:43:11.092Z,4.97
2023-01-26T02:45:41.342Z,5.57
2023-01-26T02:48:09.313Z,4.75
2023-01-26T02:50:36.487Z,5.22
2023-01-26T02:53:05.409Z,4.78
2023-01-26T02:55:33.300Z,4.82
2023-01-26T02:58:04.571Z,5.82
2023-01-26T03:00:37.974Z,5.93
2023-01-26T03:03:14.921Z,6.03
2023-01-26T03:05:42.986Z,5.75
2023-01-26T03:08:11.156Z,5.90
2023-01-26T03:10:39.455Z,5.82
2023-01-26T03:13:08.291Z,5.90
2023-01-26T03:15:52.553Z,6.28
2023-01-26T03:18:41.962Z,6.10
2023-01-26T03:21:31.783Z,5.88
2023-01-26T03:24:17.727Z,6.68
2023-01-26T03:27:03.929Z,6.60
2023-01-26T03:29:34.121Z,6.70
2023-01-26T03:32:04.421Z,6.85
2023-01-26T03:34:32.771Z,6.88
2023-01-26T03:37:00.894Z,5.90
2023-01-26T03:39:53.411Z,8.02
2023-01-26T03:42:39.219Z,6.18
2023-01-26T03:45:26.803Z,6.88
2023-01-26T03:48:25.965Z,6.97
2023-01-26T03:51:11.226Z,6.88
2023-01-26T03:53:57.111Z,6.95
2023-01-26T03:56:32.508Z,7.13
2023-01-26T03:59:10.972Z,7.05
2023-01-26T04:02:02.007Z,6.68
2023-01-26T04:04:49.748Z,6.47
2023-01-26T04:07:35.805Z,7.38
2023-01-26T04:10:03.740Z,6.47
2023-01-26T04:12:32.168Z,5.95
2023-01-26T04:15:33.181Z,5.95
2023-01-26T04:18:25.165Z,7.20
2023-01-26T04:21:15.086Z,6.10
2023-01-26T04:23:48.134Z,5.80
2023-01-26T04:26:16.912Z,6.82
2023-01-26T04:28:44.868Z,6.63
2023-01-26T04:31:12.861Z,7.00
2023-01-26T04:33:40.804Z,6.90
2023-01-26T04:36:11.788Z,6.57
2023-01-26T04:38:43.986Z,6.85
2023-01-26T04:41:13.629Z,6.28
2023-01-26T04:43:47.014Z,7.00
2023-01-26T04:46:16.215Z,6.25
2023-01-26T04:48:44.666Z,7.18
2023-01-26T04:51:17.303Z,7.22
2023-01-26T04:53:45.291Z,5.97
2023-01-26T04:56:23.783Z,6.05
2023-01-26T04:58:53.852Z,5.47
2023-01-26T05:01:23.904Z,4.97
2023-01-26T05:03:52.692Z,5.68
2023-01-26T05:06:22.387Z,5.03
2023-01-26T05:08:51.851Z,5.65
2023-01-26T05:11:20.151Z,5.60
2023-01-26T05:14:07.117Z,5.75
2023-01-26T05:16:47.784Z,5.13
2023-01-26T05:19:41.786Z,5.30
2023-01-26T05:22:37.633Z,5.28
2023-01-26T05:25:24.187Z,5.15
2023-01-26T05:28:01.914Z,5.55
2023-01-26T05:30:31.494Z,5.15
2023-01-26T05:33:05.480Z,4.80
2023-01-26T05:35:34.601Z,5.60
2023-01-26T05:38:05.174Z,4.80
2023-01-26T05:40:34.848Z,5.82
2023-01-26T05:43:02.815Z,5.18
2023-01-26T05:45:49.559Z,6.00
2023-01-26T05:48:18.715Z,6.60
2023-01-26T05:50:51.334Z,6.97
2023-01-26T05:53:22.685Z,7.18
2023-01-26T05:55:51.211Z,7.40
2023-01-26T05:58:22.707Z,6.55
2023-01-26T06:00:50.792Z,8.90
2023-01-26T06:03:25.381Z,7.53
2023-01-26T06:05:56.484Z,14.88
2023-01-26T06:08:36.277Z,6.63
2023-01-26T06:11:34.236Z,6.10
2023-01-26T06:14:18.275Z,6.00
2023-01-26T06:16:46.275Z,5.50
2023-01-26T06:19:14.388Z,6.95
2023-01-26T06:21:44.985Z,6.63
2023-01-26T06:24:15.242Z,5.70
2023-01-26T06:26:43.157Z,7.25
2023-01-26T06:29:12.547Z,6.10
2023-01-26T06:31:41.928Z,6.18
2023-01-26T06:34:11.420Z,7.80
2023-01-26T06:36:42.009Z,6.82
2023-01-26T06:39:16.918Z,6.22
2023-01-26T06:41:45.159Z,5.85
2023-01-26T06:44:13.941Z,6.68
2023-01-26T06:46:41.854Z,6.82
2023-01-26T06:49:10.859Z,6.97
2023-01-26T06:51:53.545Z,6.00
2023-01-26T06:54:25.551Z,6.20
2023-01-26T06:57:11.929Z,6.93
2023-01-26T07:00:00.407Z,7.90
2023-01-26T07:02:36.967Z,7.75
2023-01-26T07:05:05.633Z,9.02
2023-01-26T07:07:33.561Z,8.13
2023-01-26T07:10:02.893Z,8.63
2023-01-26T07:12:40.735Z,7.72
2023-01-26T07:15:11.376Z,10.70
2023-01-26T07:17:40.547Z,9.60
2023-01-26T07:20:12.739Z,7.38
2023-01-26T07:22:40.822Z,6.20
2023-01-26T07:25:10.692Z,5.50
2023-01-26T07:27:38.852Z,4.85
2023-01-26T07:30:08.885Z,4.65
2023-01-26T07:32:36.934Z,4.68
2023-01-26T07:35:05.783Z,3.63
2023-01-26T07:37:33.649Z,4.28
2023-01-26T07:40:01.559Z,4.75
2023-01-26T07:42:31.089Z,5.40
2023-01-26T07:45:19.389Z,5.50
2023-01-26T07:47:48.029Z,9.15
2023-01-26T07:50:16.554Z,5.60
2023-01-26T07:52:44.907Z,4.40
2023-01-26T07:55:16.207Z,4.28
2023-01-26T07:57:46.296Z,4.57
2023-01-26T08:00:15.760Z,4.68
2023-01-26T08:02:43.908Z,4.20
2023-01-26T08:05:11.876Z,5.20
2023-01-26T08:07:40.026Z,5.32
2023-01-26T08:10:10.922Z,5.80
2023-01-26T08:12:41.126Z,6.88
2023-01-26T08:15:11.813Z,6.25
2023-01-26T08:17:39.995Z,6.90
2023-01-26T08:20:09.963Z,7.25
2023-01-26T08:22:38.744Z,7.78
2023-01-26T08:25:08.973Z,7.78
2023-01-26T08:27:37.014Z,19.80
2023-01-26T08:30:06.670Z,12.70
2023-01-26T08:32:36.059Z,9.43
2023-01-26T08:35:04.161Z,8.90
2023-01-26T08:37:32.104Z,9.68
2023-01-26T08:39:59.990Z,7.43
2023-01-26T08:42:27.936Z,8.65
2023-01-26T08:44:55.829Z,9.52
2023-01-26T08:47:23.724Z,10.43
2023-01-26T08:49:53.111Z,11.00
2023-01-26T08:52:21.577Z,14.15
2023-01-26T08:54:49.746Z,11.27
2023-01-26T08:57:17.642Z,11.13
2023-01-26T08:59:45.601Z,8.38
2023-01-26T09:02:13.597Z,15.82
2023-01-26T09:04:41.521Z,9.35
2023-01-26T09:07:13.347Z,9.77
2023-01-26T09:09:41.679Z,7.43
2023-01-26T09:12:09.668Z,7.82
2023-01-26T09:14:37.532Z,9.40
2023-01-26T09:17:05.392Z,6.32
2023-01-26T09:19:33.704Z,6.22
2023-01-26T09:22:01.606Z,8.18
2023-01-26T09:24:30.820Z,13.43
2023-01-26T09:26:58.998Z,9.82
2023-01-26T09:29:27.046Z,7.18
2023-01-26T09:31:55.002Z,6.45
2023-01-26T09:34:25.185Z,9.50
2023-01-26T09:36:53.075Z,9.63
2023-01-26T09:39:20.946Z,7.10
2023-01-26T09:42:11.157Z,6.93
2023-01-26T09:44:50.060Z,6.43
2023-01-26T09:47:27.089Z,6.80
2023-01-26T09:50:05.562Z,6.43
2023-01-26T09:52:40.542Z,6.15
2023-01-26T09:55:20.369Z,5.50
2023-01-26T09:57:56.437Z,5.82
2023-01-26T10:00:31.765Z,4.10
2023-01-26T10:03:16.937Z,5.40
2023-01-26T10:05:55.127Z,5.15
2023-01-26T10:09:09.000Z,5.10
2023-01-26T10:11:43.780Z,6.57
2023-01-26T10:14:20.809Z,6.45
2023-01-26T10:16:54.094Z,6.60
2023-01-26T10:19:35.500Z,6.05
2023-01-26T10:22:13.414Z,5.32
2023-01-26T10:24:41.269Z,6.15
2023-01-26T10:27:14.921Z,6.22
2023-01-26T10:29:44.233Z,5.75
2023-01-26T10:32:16.016Z,6.15
2023-01-26T10:34:46.190Z,5.60
2023-01-26T10:37:22.760Z,7.15
2023-01-26T10:40:01.754Z,6.13
2023-01-26T10:42:33.211Z,6.47
2023-01-26T10:45:06.835Z,5.75
2023-01-26T10:47:34.816Z,6.82
2023-01-26T10:50:22.233Z,6.68
2023-01-26T10:53:02.250Z,6.20
2023-01-26T10:55:33.286Z,6.13
2023-01-26T10:58:02.309Z,7.07
2023-01-26T11:00:36.391Z,7.05
2023-01-26T11:03:18.400Z,6.13
2023-01-26T11:05:48.138Z,5.70
2023-01-26T11:08:36.178Z,6.03
2023-01-26T11:11:08.016Z,5.38
2023-01-26T11:13:35.973Z,5.22
2023-01-26T11:16:15.378Z,5.45
2023-01-26T11:18:58.807Z,4.93
2023-01-26T11:21:32.213Z,5.97
2023-01-26T11:24:09.987Z,5.35
2023-01-26T11:27:13.287Z,5.33
2023-01-26T11:30:07.322Z,5.13
2023-01-26T11:32:51.751Z,5.60
2023-01-26T11:35:40.772Z,5.63
2023-01-26T11:38:27.452Z,4.73
2023-01-26T11:41:21.847Z,3.87
2023-01-26T11:44:36.256Z,6.00
2023-01-26T11:47:25.033Z,4.87
2023-01-26T11:50:23.600Z,4.80
2023-01-26T11:53:19.282Z,4.23
2023-01-26T11:56:04.468Z,4.07
2023-01-26T11:58:41.940Z,3.93
2023-01-26T12:01:20.296Z,4.03
2023-01-26T12:03:51.518Z,3.90
2023-01-26T12:06:32.581Z,3.37
2023-01-26T12:09:05.740Z,3.70
2023-01-26T12:11:41.477Z,3.90
2023-01-26T12:14:22.101Z,3.70
2023-01-26T12:17:18.498Z,3.70
2023-01-26T12:20:00.158Z,4.10
2023-01-26T12:22:35.815Z,4.87
2023-01-26T12:25:23.619Z,4.30
2023-01-26T12:28:00.076Z,5.10
2023-01-26T12:30:42.456Z,5.30
2023-01-26T12:33:12.529Z,5.10
2023-01-26T12:35:59.272Z,4.30
2023-01-26T12:38:47.540Z,3.50
2023-01-26T12:41:33.454Z,4.47
2023-01-26T12:44:26.103Z,4.00
2023-01-26T12:47:06.792Z,4.30
2023-01-26T12:49:44.144Z,4.68
2023-01-26T12:52:22.742Z,4.97
2023-01-26T12:55:00.635Z,3.93
2023-01-26T12:57:37.616Z,4.18
2023-01-26T13:00:18.889Z,4.82
2023-01-26T13:02:51.519Z,4.47
2023-01-26T13:05:29.489Z,4.68
2023-01-26T13:07:57.559Z,4.28
2023-01-26T13:10:45.705Z,4.55
2023-01-26T13:13:33.301Z,4.55
2023-01-26T13:16:35.284Z,4.10
2023-01-26T13:19:04.608Z,4.65
2023-01-26T13:21:45.219Z,5.70
2023-01-26T13:24:46.813Z,5.50
2023-01-26T13:27:35.215Z,4.93
2023-01-26T13:30:03.764Z,3.85
2023-01-26T13:33:05.371Z,4.80
2023-01-26T13:35:34.390Z,4.88
2023-01-26T13:38:15.338Z,4.45
2023-01-26T13:40:47.971Z,4.38
2023-01-26T13:43:28.179Z,5.07
2023-01-26T13:46:23.633Z,4.70
2023-01-26T13:48:52.618Z,5.05
2023-01-26T13:51:25.408Z,5.38
2023-01-26T13:54:03.255Z,6.63
2023-01-26T13:56:34.229Z,6.22
2023-01-26T13:59:13.579Z,6.95
2023-01-26T14:01:44.051Z,5.13
2023-01-26T14:04:20.128Z,6.97
2023-01-26T14:06:56.337Z,11.35
2023-01-26T14:09:27.985Z,11.40
2023-01-26T14:12:01.804Z,10.98
2023-01-26T14:14:36.606Z,11.95
2023-01-26T14:17:26.453Z,23.25
2023-01-26T14:19:54.563Z,15.27
2023-01-26T14:22:22.682Z,17.17
2023-01-26T14:24:53.918Z,14.90
2023-01-26T14:27:36.665Z,19.70
2023-01-26T14:30:25.927Z,22.50
2023-01-26T14:33:05.184Z,26.17
2023-01-26T14:35:33.777Z,7.22
2023-01-26T14:38:17.844Z,8.98
2023-01-26T14:40:47.143Z,14.45
2023-01-26T14:43:16.569Z,9.32
2023-01-26T14:45:51.837Z,7.68
2023-01-26T14:48:27.129Z,7.07
2023-01-26T14:50:55.500Z,6.85
2023-01-26T14:53:25.831Z,14.23
2023-01-26T14:55:54.779Z,8.05
2023-01-26T14:58:29.138Z,7.97
2023-01-26T15:01:00.967Z,8.85
2023-01-26T15:03:35.958Z,9.98
2023-01-26T15:06:20.447Z,8.85
2023-01-26T15:09:05.180Z,11.02
2023-01-26T15:11:56.643Z,12.20
2023-01-26T15:14:35.278Z,8.52
2023-01-26T15:17:06.360Z,8.02
2023-01-26T15:19:41.976Z,7.63
2023-01-26T15:22:23.120Z,10.25
2023-01-26T15:25:03.441Z,11.00
2023-01-26T15:27:34.429Z,11.77
2023-01-26T15:30:04.471Z,11.55
2023-01-26T15:32:40.459Z,12.20
2023-01-26T15:35:22.395Z,11.95
2023-01-26T15:38:00.059Z,11.35
2023-01-26T15:40:28.417Z,12.38
2023-01-26T15:43:12.568Z,10.05
2023-01-26T15:45:43.419Z,10.07
2023-01-26T15:48:12.605Z,11.13
2023-01-26T15:50:40.490Z,10.57
2023-01-26T15:53:14.647Z,11.93
2023-01-26T15:55:45.032Z,13.82
2023-01-26T15:58:13.076Z,14.18
2023-01-26T16:00:41.011Z,12.15
2023-01-26T16:03:17.398Z,17.73
2023-01-26T16:05:47.876Z,14.05
2023-01-26T16:08:17.034Z,12.55
2023-01-26T16:10:46.191Z,12.95
2023-01-26T16:13:18.521Z,11.70
2023-01-26T16:15:49.869Z,11.00
2023-01-26T16:18:19.679Z,11.85
2023-01-26T16:20:50.516Z,12.82
2023-01-26T16:23:21.622Z,12.52
2023-01-26T16:25:51.021Z,13.15
2023-01-26T16:28:19.949Z,12.85
2023-01-26T16:30:50.845Z,11.63
2023-01-26T16:33:21.894Z,12.00
2023-01-26T16:35:49.811Z,11.15
2023-01-26T16:38:17.719Z,12.25
2023-01-26T16:40:48.668Z,12.80
2023-01-26T16:43:23.848Z,11.07
2023-01-26T16:45:52.475Z,10.38
2023-01-26T16:48:23.539Z,10.60
2023-01-26T16:50:54.565Z,10.25
2023-01-26T16:53:27.864Z,9.38
2023-01-26T16:55:56.915Z,9.45
2023-01-26T16:58:26.392Z,9.45
2023-01-26T17:00:55.105Z,10.25
2023-01-26T17:03:24.894Z,9.32
2023-01-26T17:05:52.858Z,10.60
2023-01-26T17:08:20.732Z,12.20
2023-01-26T17:11:00.974Z,10.80
2023-01-26T17:13:29.847Z,9.43
2023-01-26T17:15:58.396Z,10.90
2023-01-26T17:18:27.629Z,9.75
2023-01-26T17:20:55.625Z,9.80
2023-01-26T17:23:23.476Z,10.50
2023-01-26T17:25:58.224Z,9.82
2023-01-26T17:28:26.245Z,9.73
2023-01-26T17:30:54.413Z,8.38
2023-01-26T17:33:22.334Z,9.77
2023-01-26T17:36:01.038Z,8.57
2023-01-26T17:38:28.990Z,7.88
2023-01-26T17:40:57.524Z,8.95
2023-01-26T17:43:25.908Z,9.00
2023-01-26T17:46:02.669Z,8.90
2023-01-26T17:48:31.188Z,8.18
2023-01-26T17:51:00.416Z,8.80
2023-01-26T17:53:28.820Z,8.18
2023-01-26T17:55:57.021Z,7.05
2023-01-26T17:58:24.962Z,7.05
2023-01-26T18:00:53.966Z,7.28
2023-01-26T18:03:26.248Z,7.10
2023-01-26T18:05:56.278Z,7.95
2023-01-26T18:08:26.599Z,7.78
2023-01-26T18:10:59.333Z,7.63
2023-01-26T18:13:28.111Z,7.22
2023-01-26T18:15:56.307Z,8.07
2023-01-26T18:18:25.062Z,10.05
2023-01-26T18:20:53.464Z,7.18
2023-01-26T18:23:23.247Z,8.10
2023-01-26T18:25:53.140Z,7.05
2023-01-26T18:28:21.011Z,7.03
2023-01-26T18:30:49.421Z,7.20
2023-01-26T18:33:17.644Z,6.95
2023-01-26T18:35:45.539Z,7.03
2023-01-26T18:38:13.453Z,7.18
2023-01-26T18:40:41.771Z,6.10
2023-01-26T18:43:11.209Z,6.68
2023-01-26T18:45:42.618Z,6.88
2023-01-26T18:48:10.857Z,6.07
2023-01-26T18:50:39.213Z,7.25
2023-01-26T18:53:07.235Z,5.97
2023-01-26T18:55:35.188Z,6.70
2023-01-26T18:58:03.059Z,6.57
2023-01-26T19:00:32.655Z,7.18
2023-01-26T19:03:00.599Z,6.10
2023-01-26T19:05:29.441Z,5.70
2023-01-26T19:07:57.455Z,5.13
2023-01-26T19:10:25.357Z,5.20
2023-01-26T19:12:53.646Z,5.35
2023-01-26T19:15:21.605Z,5.28
2023-01-26T19:17:50.831Z,5.35
2023-01-26T19:20:19.151Z,3.83
2023-01-26T19:22:53.788Z,4.50
2023-01-26T19:25:21.887Z,3.88
2023-01-26T19:27:49.817Z,4.00
2023-01-26T19:30:19.029Z,4.95
2023-01-26T19:33:08.229Z,4.93
2023-01-26T19:35:38.298Z,4.93
2023-01-26T19:38:07.571Z,4.38
2023-01-26T19:40:35.739Z,4.25
2023-01-26T19:43:06.510Z,4.63
2023-01-26T19:45:34.456Z,4.45
2023-01-26T19:48:03.848Z,3.88
2023-01-26T19:50:31.853Z,4.18
2023-01-26T19:52:59.738Z,4.47
2023-01-26T19:55:27.627Z,4.45
2023-01-26T19:57:55.496Z,4.53
2023-01-26T20:00:23.873Z,3.90
2023-01-26T20:02:51.748Z,4.22
2023-01-26T20:05:21.106Z,4.03
2023-01-26T20:07:48.980Z,4.20
2023-01-26T20:10:18.231Z,5.13
2023-01-26T20:12:46.111Z,4.45
2023-01-26T20:15:14.370Z,4.47
2023-01-26T20:17:42.897Z,3.53
2023-01-26T20:20:13.416Z,4.03
2023-01-26T20:22:44.301Z,3.92
2023-01-26T20:25:12.950Z,3.83
2023-01-26T20:27:41.082Z,4.13
2023-01-26T20:30:11.299Z,3.58
2023-01-26T20:32:39.348Z,4.28
2023-01-26T20:35:09.682Z,4.22
2023-01-26T20:37:38.378Z,4.35
2023-01-26T20:40:09.205Z,4.15
2023-01-26T20:42:37.163Z,3.72
2023-01-26T20:45:05.656Z,5.15
2023-01-26T20:47:34.207Z,4.35
2023-01-26T20:50:02.181Z,4.45
2023-01-26T20:52:30.465Z,4.93
2023-01-26T20:54:58.462Z,5.95
2023-01-26T20:57:27.735Z,4.40
2023-01-26T20:59:55.738Z,4.40
2023-01-26T21:02:23.692Z,4.68
2023-01-26T21:04:54.150Z,4.95
2023-01-26T21:07:22.620Z,5.18
2023-01-26T21:09:50.501Z,5.20
2023-01-26T21:12:18.357Z,4.07
2023-01-26T21:14:47.789Z,4.13
2023-01-26T21:17:17.428Z,4.00
2023-01-26T21:19:45.319Z,3.60
2023-01-26T21:22:13.186Z,4.10
2023-01-26T21:24:41.018Z,3.80
2023-01-26T21:27:08.936Z,4.03
2023-01-26T21:29:36.806Z,4.07
2023-01-26T21:32:06.337Z,4.22
2023-01-26T21:34:34.410Z,4.53
2023-01-26T21:37:02.697Z,4.53
2023-01-26T21:39:33.486Z,4.07
2023-01-26T21:42:01.372Z,4.38
2023-01-26T21:44:31.549Z,4.28
2023-01-26T21:47:03.943Z,4.18
2023-01-26T21:49:33.172Z,4.63
2023-01-26T21:52:18.778Z,4.40
2023-01-26T21:54:46.976Z,3.70
2023-01-26T21:57:32.405Z,3.60
2023-01-26T22:00:03.638Z,3.72
2023-01-26T22:02:32.729Z,3.85
2023-01-26T22:05:01.971Z,3.78
2023-01-26T22:07:32.057Z,3.55
2023-01-26T22:09:59.916Z,3.42
2023-01-26T22:12:27.813Z,3.58
2023-01-26T22:14:55.664Z,3.97
2023-01-26T22:17:23.653Z,3.97
2023-01-26T22:19:51.550Z,3.47
2023-01-26T22:22:20.721Z,2.92
2023-01-26T22:24:48.578Z,2.83
2023-01-26T22:27:16.488Z,2.95
2023-01-26T22:29:44.380Z,3.55
2023-01-26T22:32:12.493Z,3.42
2023-01-26T22:34:43.022Z,2.70
2023-01-26T22:37:10.910Z,2.85
2023-01-26T22:39:40.097Z,3.05
2023-01-26T22:42:08.137Z,2.70
2023-01-26T22:44:36.585Z,2.72
2023-01-26T22:47:04.760Z,2.53
2023-01-26T22:49:32.623Z,2.50
2023-01-26T22:52:00.473Z,2.25
2023-01-26T22:54:28.678Z,2.85
2023-01-26T22:56:57.856Z,2.70
2023-01-26T22:59:26.035Z,2.65
2023-01-26T23:01:53.912Z,2.47
2023-01-26T23:04:21.853Z,2.90
2023-01-26T23:06:49.707Z,3.05
2023-01-26T23:09:17.599Z,3.10
2023-01-26T23:12:02.325Z,3.28
2023-01-26T23:14:31.305Z,3.17
2023-01-26T23:16:59.726Z,2.90
2023-01-26T23:19:27.702Z,2.90
2023-01-26T23:21:55.720Z,3.38
2023-01-26T23:24:23.827Z,3.53
2023-01-26T23:26:51.808Z,3.17
2023-01-26T23:29:20.993Z,2.80
2023-01-26T23:31:48.944Z,2.38
2023-01-26T23:34:16.922Z,2.63
2023-01-26T23:36:44.802Z,3.08
2023-01-26T23:39:12.668Z,3.35
2023-01-26T23:41:40.533Z,3.15
2023-01-26T23:44:08.391Z,2.90
2023-01-26T23:46:37.943Z,2.92
2023-01-26T23:49:05.845Z,2.85
2023-01-26T23:51:33.720Z,3.05
2023-01-26T23:54:01.629Z,2.83
2023-01-26T23:56:29.868Z,3.00
2023-01-26T23:58:57.722Z,2.78
